Time,TemperatureF,DewpointF,PressureIn,WindDirection,WindDirectionDegrees,WindSpeedMPH,WindSpeedGustMPH,Humidity,HourlyPrecipIn,Conditions,Clouds,dailyrainin,SoftwareType,DateUTC
2013-01-15 00:02:00,17.0,13.0,-100.00,North,5,1.0,3.0,83,-99.99,,,-99.99,,2013-01-15 08:02:00,
2013-01-15 00:10:00,17.0,14.0,-100.00,North,350,2.0,3.0,87,-99.99,,,-99.99,,2013-01-15 08:10:00,
2013-01-15 01:02:00,17.0,14.0,-100.00,North,350,2.0,3.0,87,-99.99,,,-99.99,,2013-01-15 09:02:00,
2013-01-15 02:02:00,15.0,12.0,-100.00,East,90,0.0,1.0,87,-99.99,,,-99.99,,2013-01-15 10:02:00,
2013-01-15 02:10:00,15.0,12.0,-100.00,NW,305,1.0,2.0,87,-99.99,,,-99.99,,2013-01-15 10:10:00,
2013-01-15 02:11:00,15.0,12.0,-100.00,East,90,0.0,1.0,87,-99.99,,,-99.99,,2013-01-15 10:11:00,
2013-01-15 03:02:00,15.0,12.0,-100.00,NW,305,1.0,2.0,87,-99.99,,,-99.99,,2013-01-15 11:02:00,
2013-01-15 05:03:00,14.0,11.0,-100.00,WNW,285,2.0,2.0,87,-99.99,,,-99.99,,2013-01-15 13:03:00,
2013-01-15 05:10:00,13.0,10.0,-100.00,NNW,340,1.0,1.0,87,-99.99,,,-99.99,,2013-01-15 13:10:00,
2013-01-15 06:02:00,13.0,10.0,-100.00,NNW,340,1.0,1.0,87,-99.99,,,-99.99,,2013-01-15 14:02:00,
2013-01-15 07:03:00,12.0,9.0,-100.00,NW,320,0.0,2.0,87,-99.99,,,-99.99,,2013-01-15 15:03:00,
2013-01-15 07:10:00,11.0,8.0,-100.00,West,270,0.0,1.0,87,-99.99,,,-99.99,,2013-01-15 15:10:00,
2013-01-15 07:12:00,12.0,9.0,-100.00,NW,320,0.0,2.0,87,-99.99,,,-99.99,,2013-01-15 15:12:00,
2013-01-15 08:02:00,11.0,8.0,-100.00,West,270,0.0,1.0,87,-99.99,,,-99.99,,2013-01-15 16:02:00,
2013-01-15 09:03:00,12.0,9.0,-100.00,North,360,2.0,3.0,87,-99.99,,,-99.99,,2013-01-15 17:03:00,
2013-01-15 09:12:00,12.0,9.0,-100.00,North,360,2.0,3.0,87,-99.99,,,-99.99,,2013-01-15 17:12:00,
2013-01-15 09:20:00,15.0,12.0,-100.00,SSW,205,0.0,1.0,87,-99.99,,,-99.99,,2013-01-15 17:20:00,
2013-01-15 10:03:00,15.0,12.0,-100.00,SSW,205,0.0,1.0,87,-99.99,,,-99.99,,2013-01-15 18:03:00,
2013-01-15 10:10:00,18.0,14.0,-100.00,North,350,1.0,2.0,84,-99.99,,,-99.99,,2013-01-15 18:10:00,
2013-01-15 10:12:00,15.0,12.0,-100.00,SSW,205,0.0,1.0,87,-99.99,,,-99.99,,2013-01-15 18:12:00,
2013-01-15 11:03:00,18.0,14.0,-100.00,North,350,1.0,2.0,84,-99.99,,,-99.99,,2013-01-15 19:03:00,
2013-01-15 12:03:00,21.0,15.0,-100.00,SE,125,5.0,7.0,77,-99.99,,,-99.99,,2013-01-15 20:03:00,
2013-01-15 12:12:00,21.0,15.0,-100.00,SE,125,5.0,7.0,77,-99.99,,,-99.99,,2013-01-15 20:12:00,
2013-01-15 13:03:00,24.0,16.0,-100.00,SE,145,6.0,9.0,71,-99.99,,,-99.99,,2013-01-15 21:03:00,
2013-01-15 13:10:00,27.0,18.0,-100.00,SE,145,5.0,6.0,68,-99.99,,,-99.99,,2013-01-15 21:10:00,
2013-01-15 14:03:00,27.0,18.0,-100.00,SE,145,5.0,6.0,68,-99.99,,,-99.99,,2013-01-15 22:03:00,
2013-01-15 15:02:00,29.0,18.0,-100.00,SSE,155,3.0,6.0,63,-99.99,,,-99.99,,2013-01-15 23:02:00,
2013-01-15 15:10:00,28.0,17.0,-100.00,SSE,155,2.0,5.0,62,-99.99,,,-99.99,,2013-01-15 23:10:00,
2013-01-15 15:12:00,29.0,18.0,-100.00,SSE,155,3.0,6.0,63,-99.99,,,-99.99,,2013-01-15 23:12:00,
2013-01-15 16:02:00,28.0,17.0,-100.00,SSE,155,2.0,5.0,62,-99.99,,,-99.99,,2013-01-16 00:02:00,
2013-01-15 17:02:00,25.0,16.0,-100.00,West,270,1.0,1.0,68,-99.99,,,-99.99,,2013-01-16 01:02:00,
2013-01-15 17:12:00,25.0,16.0,-100.00,West,270,1.0,1.0,68,-99.99,,,-99.99,,2013-01-16 01:12:00,
2013-01-15 18:02:00,22.0,15.0,-100.00,WSW,255,1.0,1.0,74,-99.99,,,-99.99,,2013-01-16 02:02:00,
2013-01-15 18:10:00,18.0,13.0,-100.00,NNE,25,1.0,1.0,80,-99.99,,,-99.99,,2013-01-16 02:10:00,
2013-01-15 19:02:00,18.0,13.0,-100.00,NNE,25,1.0,1.0,80,-99.99,,,-99.99,,2013-01-16 03:02:00,
2013-01-15 20:02:00,17.0,13.0,-100.00,NW,310,0.0,2.0,83,-99.99,,,-99.99,,2013-01-16 04:02:00,
2013-01-15 20:10:00,15.0,11.0,-100.00,North,0,0.0,3.0,83,-99.99,,,-99.99,,2013-01-16 04:10:00,
2013-01-15 20:12:00,17.0,13.0,-100.00,NW,310,0.0,2.0,83,-99.99,,,-99.99,,2013-01-16 04:12:00,
2013-01-15 21:03:00,15.0,11.0,-100.00,North,0,0.0,3.0,83,-99.99,,,-99.99,,2013-01-16 05:03:00,
2013-01-15 22:02:00,13.0,10.0,-100.00,NNW,335,1.0,3.0,87,-99.99,,,-99.99,,2013-01-16 06:02:00,
2013-01-15 22:12:00,13.0,10.0,-100.00,NNW,335,1.0,3.0,87,-99.99,,,-99.99,,2013-01-16 06:12:00,
2013-01-15 22:20:00,12.0,9.0,-100.00,NW,320,1.0,5.0,87,-99.99,,,-99.99,,2013-01-16 06:20:00,
2013-01-15 23:02:00,12.0,9.0,-100.00,NW,320,1.0,5.0,87,-99.99,,,-99.99,,2013-01-16 07:02:00,
2013-01-15 23:10:00,11.0,8.0,-100.00,WSW,250,1.0,2.0,87,-99.99,,,-99.99,,2013-01-16 07:10:00,
2013-01-15 23:12:00,12.0,9.0,-100.00,NW,320,1.0,5.0,87,-99.99,,,-99.99,,2013-01-16 07:12:00,